Latest Weather Observations for Melville Water

IDW60801

Issued at 1:05 pm WST Friday 25 April 2014 (issued every 30 minutes, with the page automatically refreshed every 10 minutes)

About weather observations | Map of weather stations | Latest weather observations for WA | Other Formats
Station Details ID: 009091 Name: INNER DOLPHIN PYLON Lat: -31.99 Lon: 115.83 Height: 0.0 m
Data from the previous 72 hours. | See also: Recent months for locations in Western Australia
Date/Time
WST
Temp
°C
App
Temp
°C
Dew
Point
Rel
Hum
%
Delta-T
°C
Wind Press
QNH
hPa
Press
MSL
hPa
Rain
since 9 am
mm
Dir
 
Spd
km/h
Gust
km/h
Spd
kts
Gust
kts
25/01:00pm - - - - - WSW 13 19 7 10 - - -
25/12:30pm - - - - - SW 13 19 7 10 - - -
25/12:00pm - - - - - CALM 0 4 0 2 - - -
25/11:30am - - - - - CALM 0 2 0 1 - - -
25/11:00am - - - - - WSW 2 4 1 2 - - -
25/10:30am - - - - - WSW 7 11 4 6 - - -
25/10:00am - - - - - WSW 11 15 6 8 - - -
25/09:30am - - - - - SW 9 13 5 7 - - -
25/09:00am - - - - - SW 13 19 7 10 - - -
25/08:30am - - - - - W 6 7 3 4 - - -
25/08:00am - - - - - S 2 4 1 2 - - -
25/07:30am - - - - - S 9 11 5 6 - - -
25/07:00am - - - - - SSW 7 11 4 6 - - -
25/06:30am - - - - - SSW 11 13 6 7 - - -
25/06:00am - - - - - S 6 7 3 4 - - -
25/05:30am - - - - - CALM 0 6 0 3 - - -
25/05:00am - - - - - NE 2 4 1 2 - - -
25/04:30am - - - - - ENE 6 7 3 4 - - -
25/04:00am - - - - - E 6 6 3 3 - - -
25/03:30am - - - - - NNW 2 2 1 1 - - -
25/03:00am - - - - - NNW 4 6 2 3 - - -
25/02:30am - - - - - ENE 6 7 3 4 - - -
25/02:00am - - - - - ENE 7 9 4 5 - - -
25/01:30am - - - - - NE 6 9 3 5 - - -
25/01:00am - - - - - N 2 6 1 3 - - -
25/12:30am - - - - - NNW 7 9 4 5 - - -
25/12:00am - - - - - NNW 7 7 4 4 - - -
 
Date/Time
WST
Temp
°C
App
Temp
°C
Dew
Point
Rel
Hum
%
Delta-T
°C
Wind Press
QNH
hPa
Press
MSL
hPa
Rain
since 9 am
mm
Dir
 
Spd
km/h
Gust
km/h
Spd
kts
Gust
kts
24/11:30pm - - - - - NNW 7 11 4 6 - - -
24/11:00pm - - - - - N 13 17 7 9 - - -
24/10:30pm - - - - - NNW 11 15 6 8 - - -
24/10:00pm - - - - - N 9 11 5 6 - - -
24/09:30pm - - - - - N 9 11 5 6 - - -
24/09:00pm - - - - - N 6 9 3 5 - - -
24/08:30pm - - - - - ESE 6 7 3 4 - - -
24/08:00pm - - - - - WSW 7 13 4 7 - - -
24/07:30pm - - - - - SW 13 17 7 9 - - -
24/07:00pm - - - - - WSW 9 13 5 7 - - -
24/06:30pm - - - - - WSW 11 15 6 8 - - -
24/06:00pm - - - - - WSW 9 11 5 6 - - -
24/05:30pm - - - - - WSW 11 13 6 7 - - -
24/05:00pm - - - - - SW 13 15 7 8 - - -
24/04:30pm - - - - - W 7 9 4 5 - - -
24/04:00pm - - - - - WSW 9 13 5 7 - - -
24/03:30pm - - - - - W 7 9 4 5 - - -
24/03:00pm - - - - - WSW 6 7 3 4 - - -
24/02:30pm - - - - - WSW 9 11 5 6 - - -
24/02:00pm - - - - - WSW 11 13 6 7 - - -
24/01:30pm - - - - - WSW 11 13 6 7 - - -
24/01:00pm - - - - - WSW 11 15 6 8 - - -
24/12:30pm - - - - - WSW 7 7 4 4 - - -
24/12:00pm - - - - - WSW 7 9 4 5 - - -
24/11:30am - - - - - WSW 6 6 3 3 - - -
24/11:00am - - - - - WSW 4 6 2 3 - - -
24/10:30am - - - - - WSW 6 7 3 4 - - -
24/10:00am - - - - - WSW 4 6 2 3 - - -
24/09:30am - - - - - CALM 0 2 0 1 - - -
24/09:00am - - - - - ENE 2 4 1 2 - - -
24/08:30am - - - - - SSW 2 6 1 3 - - -
24/08:00am - - - - - ESE 7 11 4 6 - - -
24/07:30am - - - - - E 7 9 4 5 - - -
24/07:00am - - - - - ESE 9 11 5 6 - - -
24/06:30am - - - - - E 7 11 4 6 - - -
24/06:00am - - - - - ESE 11 15 6 8 - - -
24/05:30am - - - - - SE 13 17 7 9 - - -
24/05:00am - - - - - SE 17 19 9 10 - - -
24/04:30am - - - - - ESE 19 20 10 11 - - -
24/04:00am - - - - - SE 17 20 9 11 - - -
24/03:30am - - - - - ESE 20 22 11 12 - - -
24/03:00am - - - - - SE 17 19 9 10 - - -
24/02:30am - - - - - SE 13 17 7 9 - - -
24/02:00am - - - - - ESE 13 17 7 9 - - -
24/01:30am - - - - - ESE 13 20 7 11 - - -
24/01:00am - - - - - ESE 11 15 6 8 - - -
24/12:30am - - - - - ESE 13 15 7 8 - - -
24/12:00am - - - - - ESE 15 17 8 9 - - -
 
Date/Time
WST
Temp
°C
App
Temp
°C
Dew
Point
Rel
Hum
%
Delta-T
°C
Wind Press
QNH
hPa
Press
MSL
hPa
Rain
since 9 am
mm
Dir
 
Spd
km/h
Gust
km/h
Spd
kts
Gust
kts
23/11:30pm - - - - - ESE 17 22 9 12 - - -
23/11:00pm - - - - - ESE 22 28 12 15 - - -
23/10:30pm - - - - - ESE 20 24 11 13 - - -
23/10:00pm - - - - - ESE 22 30 12 16 - - -
23/09:30pm - - - - - SE 9 11 5 6 - - -
23/09:00pm - - - - - SSE 6 9 3 5 - - -
23/08:30pm - - - - - SE 6 7 3 4 - - -
23/08:00pm - - - - - SSE 9 11 5 6 - - -
23/07:30pm - - - - - S 11 15 6 8 - - -
23/07:00pm - - - - - SSW 11 13 6 7 - - -
23/06:30pm - - - - - SW 9 11 5 6 - - -
23/06:00pm - - - - - SSW 15 17 8 9 - - -
23/05:30pm - - - - - SSW 19 22 10 12 - - -
23/05:00pm - - - - - SSW 22 28 12 15 - - -
23/04:30pm - - - - - SW 20 24 11 13 - - -
23/04:00pm - - - - - SW 24 30 13 16 - - -
23/03:30pm - - - - - SW 22 28 12 15 - - -
23/03:00pm - - - - - SW 20 26 11 14 - - -
23/02:30pm - - - - - SSW 7 11 4 6 - - -
23/02:00pm - - - - - SW 9 15 5 8 - - -
23/01:30pm - - - - - SSW 9 20 5 11 - - -
23/01:00pm - - - - - SSW 6 13 3 7 - - -
23/12:30pm - - - - - SSW 2 9 1 5 - - -
23/12:00pm - - - - - SSW 2 9 1 5 - - -
23/11:30am - - - - - SE 11 17 6 9 - - -
23/11:00am - - - - - S 13 19 7 10 - - -
23/10:30am - - - - - S 13 22 7 12 - - -
23/10:00am - - - - - SSE 17 22 9 12 - - -
23/09:30am - - - - - SE 19 22 10 12 - - -
23/09:00am - - - - - SE 15 19 8 10 - - -
23/08:30am - - - - - SE 13 17 7 9 - - -
23/08:00am - - - - - SSE 13 15 7 8 - - -
23/07:30am - - - - - SSE 11 13 6 7 - - -
23/07:00am - - - - - SE 13 17 7 9 - - -
23/06:30am - - - - - SE 11 15 6 8 - - -
23/06:00am - - - - - SSE 7 11 4 6 - - -
23/05:30am - - - - - SE 7 9 4 5 - - -
23/05:00am - - - - - SE 9 11 5 6 - - -
23/04:30am - - - - - SE 13 17 7 9 - - -
23/04:00am - - - - - SSE 15 19 8 10 - - -
23/03:30am - - - - - SSE 13 19 7 10 - - -
23/03:00am - - - - - SSE 15 19 8 10 - - -
23/02:30am - - - - - SSE 15 19 8 10 - - -
23/02:00am - - - - - SSE 19 26 10 14 - - -
23/01:30am - - - - - S 19 26 10 14 - - -
23/01:00am - - - - - S 17 24 9 13 - - -
23/12:30am - - - - - S 20 30 11 16 - - -
23/12:00am - - - - - S 19 24 10 13 - - -
 
Date/Time
WST
Temp
°C
App
Temp
°C
Dew
Point
Rel
Hum
%
Delta-T
°C
Wind Press
QNH
hPa
Press
MSL
hPa
Rain
since 9 am
mm
Dir
 
Spd
km/h
Gust
km/h
Spd
kts
Gust
kts
22/11:30pm - - - - - S 20 28 11 15 - - -
22/11:00pm - - - - - S 17 20 9 11 - - -
22/10:30pm - - - - - S 15 20 8 11 - - -
22/10:00pm - - - - - S 15 20 8 11 - - -
22/09:30pm - - - - - S 13 20 7 11 - - -
22/09:00pm - - - - - S 17 22 9 12 - - -
22/08:30pm - - - - - S 17 22 9 12 - - -
22/08:00pm - - - - - S 19 24 10 13 - - -
22/07:30pm - - - - - S 17 20 9 11 - - -
22/07:00pm - - - - - S 17 20 9 11 - - -
22/06:30pm - - - - - SSW 20 24 11 13 - - -
22/06:00pm - - - - - SSW 20 28 11 15 - - -
22/05:30pm - - - - - SSW 24 30 13 16 - - -
22/05:00pm - - - - - SSW 24 30 13 16 - - -
22/04:30pm - - - - - SW 22 28 12 15 - - -
22/04:00pm - - - - - SW 22 28 12 15 - - -
22/03:30pm - - - - - SW 22 30 12 16 - - -
22/03:00pm - - - - - SW 22 28 12 15 - - -
22/02:30pm - - - - - SW 22 28 12 15 - - -
22/02:00pm - - - - - WSW 20 24 11 13 - - -
22/01:30pm - - - - - WSW 22 28 12 15 - - -

Other Formats:

Comma delimited format used in spreadsheet applications
http://www.bom.gov.au/fwo/IDW60801/IDW60801.95620.axf

JavaScript Object Notation format (JSON) in row-major order
http://www.bom.gov.au/fwo/IDW60801/IDW60801.95620.json